Aughton, United Kingdom
Current Conditions -  °F | °C
As of 5:50 AM on Saturday 20 Dec 2014 (Local Time) from EGCN Reporting Station
Broken Clouds Broken Clouds  
Wind Chill:   Ceiling: 2800
Heat Index:   Visibility: 6mi
Dew Point:   Wind: 24mph
Humidity: 71%   Direction: 270°W
Pressure: 30.06"   Gusts: 36mph
Location:  53.36°N, 1.27°W
Report Text: EGCN 200550Z 27021G31KT 9999 FEW022 BKN028 BKN041 08/03 Q1018
Loading
Personal Weather Stations






























Interactive Weather Map New forecast layout! Learn more

10-Day Weather Forecast

Advertisements
Track Severe Weather on mobile